createdAt,value
2023-04-03T00:01:26.425Z,3.20
2023-04-03T00:03:54.906Z,3.20
2023-04-03T00:06:23.796Z,3.20
2023-04-03T00:08:52.648Z,3.20
2023-04-03T00:11:22.673Z,3.20
2023-04-03T00:13:51.192Z,3.30
2023-04-03T00:16:19.913Z,3.30
2023-04-03T00:18:48.081Z,3.30
2023-04-03T00:21:17.041Z,3.20
2023-04-03T00:23:45.294Z,3.20
2023-04-03T00:26:14.049Z,3.20
2023-04-03T00:28:43.554Z,3.20
2023-04-03T00:31:12.074Z,3.20
2023-04-03T00:33:42.396Z,3.10
2023-04-03T00:36:12.249Z,2.90
2023-04-03T00:38:40.649Z,2.70
2023-04-03T00:41:09.348Z,2.70
2023-04-03T00:43:37.898Z,2.70
2023-04-03T00:46:07.465Z,2.60
2023-04-03T00:48:41.483Z,2.50
2023-04-03T00:51:14.808Z,2.60
2023-04-03T00:53:49.479Z,2.70
2023-04-03T00:56:23.444Z,2.60
2023-04-03T00:58:59.282Z,2.50
2023-04-03T01:01:31.639Z,2.40
2023-04-03T01:04:02.048Z,2.20
2023-04-03T01:06:36.225Z,2.10
2023-04-03T01:09:06.471Z,2.20
2023-04-03T01:11:35.112Z,2.20
2023-04-03T01:14:03.822Z,2.10
2023-04-03T01:16:33.593Z,2.10
2023-04-03T01:19:02.704Z,2.10
2023-04-03T01:22:04.826Z,2.00
2023-04-03T01:24:39.881Z,2.00
2023-04-03T01:27:11.554Z,2.00
2023-04-03T01:29:41.426Z,1.90
2023-04-03T01:32:10.965Z,1.80
2023-04-03T01:34:39.146Z,1.80
2023-04-03T01:37:07.228Z,1.90
2023-04-03T01:39:35.432Z,1.80
2023-04-03T01:42:04.633Z,1.80
2023-04-03T01:44:32.724Z,1.80
2023-04-03T01:47:00.812Z,1.90
2023-04-03T01:49:30.287Z,1.90
2023-04-03T01:51:58.348Z,1.80
2023-04-03T01:54:26.528Z,1.70
2023-04-03T01:56:54.675Z,1.70
2023-04-03T01:59:22.846Z,1.70
2023-04-03T02:01:50.974Z,1.70
2023-04-03T02:04:19.135Z,1.80
2023-04-03T02:06:48.649Z,1.80
2023-04-03T02:09:17.022Z,1.60
2023-04-03T02:11:45.269Z,1.70
2023-04-03T02:14:13.401Z,1.60
2023-04-03T02:16:41.999Z,1.60
2023-04-03T02:19:10.249Z,1.60
2023-04-03T02:21:38.404Z,1.50
2023-04-03T02:24:08.453Z,1.50
2023-04-03T02:26:36.572Z,1.50
2023-04-03T02:29:05.070Z,1.40
2023-04-03T02:31:33.723Z,1.50
2023-04-03T02:34:01.955Z,1.50
2023-04-03T02:36:31.900Z,1.50
2023-04-03T02:39:01.103Z,1.50
2023-04-03T02:41:35.767Z,1.60
2023-04-03T02:44:05.115Z,1.60
2023-04-03T02:46:33.539Z,1.40
2023-04-03T02:49:01.723Z,1.40
2023-04-03T02:51:29.818Z,1.30
2023-04-03T02:53:57.963Z,1.30
2023-04-03T02:56:27.701Z,1.20
2023-04-03T02:58:57.177Z,1.20
2023-04-03T03:01:25.361Z,1.10
2023-04-03T03:03:53.472Z,1.00
2023-04-03T03:06:21.677Z,0.90
2023-04-03T03:08:49.800Z,0.90
2023-04-03T03:11:17.957Z,0.90
2023-04-03T03:13:46.199Z,0.90
2023-04-03T03:16:15.911Z,0.90
2023-04-03T03:18:44.029Z,0.80
2023-04-03T03:21:12.752Z,0.80
2023-04-03T03:23:41.126Z,0.80
2023-04-03T03:26:12.198Z,0.70
2023-04-03T03:31:12.160Z,0.80
2023-04-03T03:33:41.813Z,0.70
2023-04-03T03:36:10.128Z,0.70
2023-04-03T03:38:38.713Z,0.70
2023-04-03T03:41:07.060Z,0.60
2023-04-03T03:43:35.615Z,0.60
2023-04-03T03:46:03.707Z,0.60
2023-04-03T03:48:31.888Z,0.70
2023-04-03T03:51:01.499Z,0.50
2023-04-03T03:53:29.671Z,0.50
2023-04-03T03:55:57.869Z,0.50
2023-04-03T03:58:26.043Z,0.50
2023-04-03T04:00:54.220Z,0.60
2023-04-03T04:03:22.996Z,0.60
2023-04-03T04:05:51.136Z,0.50
2023-04-03T04:08:20.816Z,0.60
2023-04-03T04:10:48.949Z,0.50
2023-04-03T04:13:17.155Z,0.40
2023-04-03T04:15:45.697Z,0.40
2023-04-03T04:18:13.840Z,0.40
2023-04-03T04:20:41.950Z,0.50
2023-04-03T04:23:10.409Z,0.30
2023-04-03T04:25:39.909Z,0.20
2023-04-03T04:28:08.393Z,0.20
2023-04-03T04:30:36.478Z,0.10
2023-04-03T04:33:04.913Z,0.30
2023-04-03T04:35:33.201Z,0.30
2023-04-03T04:38:01.572Z,0.30
2023-04-03T04:40:30.369Z,0.20
2023-04-03T04:42:59.818Z,0.20
2023-04-03T04:45:27.932Z,0.20
2023-04-03T04:47:58.077Z,0.20
2023-04-03T04:50:26.172Z,0.20
2023-04-03T04:52:54.273Z,0.30
2023-04-03T04:55:22.616Z,0.40
2023-04-03T04:57:50.715Z,0.30
2023-04-03T05:00:21.609Z,0.30
2023-04-03T05:02:49.885Z,0.20
2023-04-03T05:05:18.336Z,0.20
2023-04-03T05:07:46.682Z,0.30
2023-04-03T05:10:14.802Z,0.30
2023-04-03T05:12:42.895Z,0.30
2023-04-03T05:15:12.274Z,0.30
2023-04-03T05:17:41.784Z,0.30
2023-04-03T05:20:11.340Z,0.30
2023-04-03T05:22:39.442Z,0.30
2023-04-03T05:25:09.180Z,0.30
2023-04-03T05:27:37.354Z,0.40
2023-04-03T05:30:06.730Z,0.60
2023-04-03T05:32:35.258Z,0.60
2023-04-03T05:35:05.704Z,0.60
2023-04-03T05:37:33.975Z,0.70
2023-04-03T05:40:02.609Z,0.80
2023-04-03T05:42:30.865Z,0.90
2023-04-03T05:44:59.190Z,1.10
2023-04-03T05:47:27.529Z,1.20
2023-04-03T05:49:55.675Z,1.20
2023-04-03T05:52:30.852Z,1.30
2023-04-03T05:54:59.542Z,1.30
2023-04-03T05:57:27.739Z,1.30
2023-04-03T05:59:56.359Z,1.40
2023-04-03T06:02:27.201Z,1.60
2023-04-03T06:04:55.802Z,1.60
2023-04-03T06:07:29.200Z,1.60
2023-04-03T06:09:58.749Z,1.50
2023-04-03T06:12:26.879Z,1.60
2023-04-03T06:14:55.045Z,1.70
2023-04-03T06:17:23.551Z,1.70
2023-04-03T06:19:51.983Z,1.70
2023-04-03T06:22:20.699Z,1.70
2023-04-03T06:24:50.258Z,1.80
2023-04-03T06:27:18.445Z,1.80
2023-04-03T06:29:46.643Z,1.80
2023-04-03T06:32:14.835Z,1.70
2023-04-03T06:34:43.622Z,1.70
2023-04-03T06:37:17.630Z,1.80
2023-04-03T06:39:46.175Z,1.90
2023-04-03T06:42:15.823Z,2.00
2023-04-03T06:44:43.930Z,1.90
2023-04-03T06:47:14.535Z,1.90
2023-04-03T06:49:43.711Z,1.90
2023-04-03T06:52:13.036Z,2.00
2023-04-03T06:54:42.484Z,2.00
2023-04-03T06:57:10.791Z,2.20
2023-04-03T06:59:41.182Z,2.20
2023-04-03T07:02:12.054Z,2.20
2023-04-03T07:04:40.205Z,2.30
2023-04-03T07:07:08.677Z,2.40
2023-04-03T07:09:37.087Z,2.50
2023-04-03T07:12:05.487Z,2.60
2023-04-03T07:14:33.558Z,2.70
2023-04-03T07:17:03.099Z,2.80
2023-04-03T07:19:32.193Z,3.10
2023-04-03T07:22:00.758Z,3.20
2023-04-03T07:24:28.934Z,3.10
2023-04-03T07:26:57.240Z,3.10
2023-04-03T07:29:25.304Z,3.10
2023-04-03T07:31:53.568Z,3.10
2023-04-03T07:34:23.250Z,3.10
2023-04-03T07:36:51.402Z,3.10
2023-04-03T07:39:20.019Z,3.10
2023-04-03T07:41:48.173Z,3.20
2023-04-03T07:44:16.260Z,3.20
2023-04-03T07:46:44.390Z,3.30
2023-04-03T07:49:12.488Z,3.30
2023-04-03T07:51:42.653Z,3.50
2023-04-03T07:54:10.759Z,3.80
2023-04-03T07:56:38.918Z,3.90
2023-04-03T07:59:07.629Z,3.80
2023-04-03T08:01:35.754Z,4.10
2023-04-03T08:04:04.122Z,4.20
2023-04-03T08:06:45.680Z,4.30
2023-04-03T08:09:16.777Z,4.40
2023-04-03T08:11:45.385Z,4.40
2023-04-03T08:14:17.582Z,4.30
2023-04-03T08:16:47.624Z,4.10
2023-04-03T08:19:25.340Z,3.80
2023-04-03T08:21:56.184Z,3.70
2023-04-03T08:24:25.795Z,3.90
2023-04-03T08:26:53.915Z,4.00
2023-04-03T08:29:22.826Z,4.20
2023-04-03T08:31:51.762Z,4.30
2023-04-03T08:34:21.140Z,4.20
2023-04-03T08:36:49.963Z,4.10
2023-04-03T08:39:18.208Z,4.00
2023-04-03T08:41:48.986Z,3.80
2023-04-03T08:44:27.242Z,3.70
2023-04-03T08:47:11.852Z,3.60
2023-04-03T08:49:48.648Z,3.60
2023-04-03T08:52:21.417Z,3.60
2023-04-03T08:54:58.119Z,3.70
2023-04-03T08:57:35.475Z,3.90
2023-04-03T09:00:09.539Z,4.00
2023-04-03T09:02:48.130Z,4.20
2023-04-03T09:05:20.021Z,4.50
2023-04-03T09:07:54.419Z,4.70
2023-04-03T09:10:32.352Z,4.80
2023-04-03T09:13:09.138Z,5.00
2023-04-03T09:15:39.490Z,5.30
2023-04-03T09:18:17.628Z,5.30
2023-04-03T09:20:56.117Z,5.40
2023-04-03T09:23:35.057Z,5.60
2023-04-03T09:26:10.094Z,5.50
2023-04-03T09:28:49.383Z,5.40
2023-04-03T09:31:26.274Z,5.10
2023-04-03T09:34:02.471Z,4.80
2023-04-03T09:36:45.464Z,4.60
2023-04-03T09:39:17.785Z,4.60
2023-04-03T09:42:00.464Z,4.70
2023-04-03T09:44:33.068Z,4.90
2023-04-03T09:47:19.338Z,5.30
2023-04-03T09:49:47.693Z,5.70
2023-04-03T09:52:25.455Z,6.00
2023-04-03T09:54:53.664Z,6.00
2023-04-03T09:57:21.797Z,5.70
2023-04-03T10:00:02.240Z,5.60
2023-04-03T10:02:40.399Z,5.60
2023-04-03T10:05:34.173Z,5.80
2023-04-03T10:08:26.044Z,6.30
2023-04-03T10:11:16.846Z,6.40
2023-04-03T10:14:00.631Z,6.40
2023-04-03T10:16:40.295Z,6.50
2023-04-03T10:19:34.461Z,6.40
2023-04-03T10:22:15.441Z,6.40
2023-04-03T10:24:56.983Z,6.10
2023-04-03T10:27:43.805Z,5.80
2023-04-03T10:30:34.509Z,5.90
2023-04-03T10:33:22.625Z,6.10
2023-04-03T10:36:10.392Z,6.40
2023-04-03T10:38:52.837Z,6.40
2023-04-03T10:41:35.947Z,6.60
2023-04-03T10:44:22.734Z,6.70
2023-04-03T10:46:55.958Z,7.00
2023-04-03T10:52:27.176Z,6.80
2023-04-03T10:55:11.588Z,6.80
2023-04-03T10:57:42.259Z,6.80
2023-04-03T11:00:21.689Z,6.90
2023-04-03T11:02:58.363Z,7.00
2023-04-03T11:05:38.960Z,7.20
2023-04-03T11:08:28.270Z,7.30
2023-04-03T11:11:01.211Z,7.10
2023-04-03T11:13:36.334Z,7.30
2023-04-03T11:16:07.256Z,7.30
2023-04-03T11:18:45.832Z,7.30
2023-04-03T11:21:23.547Z,7.00
2023-04-03T11:23:54.434Z,6.70
2023-04-03T11:26:27.198Z,6.50
2023-04-03T11:29:01.079Z,6.10
2023-04-03T11:31:48.519Z,6.40
2023-04-03T11:34:37.233Z,6.80
2023-04-03T11:37:16.087Z,7.30
2023-04-03T11:39:57.636Z,7.70
2023-04-03T11:42:35.770Z,7.50
2023-04-03T11:45:33.969Z,7.30
2023-04-03T11:48:16.698Z,7.30
2023-04-03T11:50:51.403Z,7.40
2023-04-03T11:53:37.093Z,7.40
2023-04-03T11:56:32.982Z,7.60
2023-04-03T11:59:25.121Z,7.70
2023-04-03T12:01:54.727Z,7.80
2023-04-03T12:04:26.276Z,7.40
2023-04-03T12:07:18.362Z,7.00
2023-04-03T12:10:30.928Z,6.80
2023-04-03T12:13:05.207Z,6.70
2023-04-03T12:15:54.732Z,7.00
2023-04-03T12:18:59.388Z,7.30
2023-04-03T12:22:12.040Z,7.50
2023-04-03T12:24:43.180Z,7.20
2023-04-03T12:27:31.257Z,7.00
2023-04-03T12:30:10.707Z,7.00
2023-04-03T12:33:13.325Z,7.00
2023-04-03T12:35:58.922Z,7.20
2023-04-03T12:39:16.640Z,7.10
2023-04-03T12:41:56.004Z,6.80
2023-04-03T12:44:49.245Z,6.70
2023-04-03T12:47:33.770Z,6.80
2023-04-03T12:50:04.061Z,6.80
2023-04-03T12:52:41.719Z,6.90
2023-04-03T12:55:18.259Z,7.00
2023-04-03T12:57:47.075Z,7.20
2023-04-03T13:00:33.292Z,7.20
2023-04-03T13:03:03.515Z,7.00
2023-04-03T13:05:36.782Z,7.10
2023-04-03T13:08:15.928Z,7.00
2023-04-03T13:10:56.832Z,7.00
2023-04-03T13:13:25.146Z,7.00
2023-04-03T13:15:55.971Z,7.00
2023-04-03T13:18:32.587Z,6.90
2023-04-03T13:21:07.562Z,6.80
2023-04-03T13:23:42.498Z,6.80
2023-04-03T13:26:12.165Z,6.90
2023-04-03T13:28:42.985Z,7.00
2023-04-03T13:31:24.806Z,7.10
2023-04-03T13:34:04.024Z,7.10
2023-04-03T13:36:37.663Z,7.00
2023-04-03T13:39:09.426Z,7.00
2023-04-03T13:41:40.327Z,6.80
2023-04-03T13:44:35.473Z,6.80
2023-04-03T13:47:21.594Z,6.80
2023-04-03T13:50:04.531Z,7.10
2023-04-03T13:52:37.189Z,7.10
2023-04-03T13:55:25.727Z,7.20
2023-04-03T13:57:59.188Z,7.10
2023-04-03T14:00:38.229Z,7.00
2023-04-03T14:03:22.587Z,6.80
2023-04-03T14:05:50.754Z,6.50
2023-04-03T14:08:22.097Z,6.50
2023-04-03T14:10:55.001Z,6.30
2023-04-03T14:13:23.486Z,6.40
2023-04-03T14:15:52.403Z,6.30
2023-04-03T14:18:22.686Z,6.50
2023-04-03T14:20:51.861Z,6.50
2023-04-03T14:23:19.955Z,6.40
2023-04-03T14:25:48.532Z,6.40
2023-04-03T14:28:21.982Z,6.50
2023-04-03T14:30:53.139Z,6.50
2023-04-03T14:33:24.761Z,6.50
2023-04-03T14:35:54.045Z,6.50
2023-04-03T14:38:27.931Z,6.30
2023-04-03T14:41:06.315Z,6.20
2023-04-03T14:43:42.192Z,6.10
2023-04-03T14:46:17.754Z,6.20
2023-04-03T14:48:47.545Z,6.30
2023-04-03T14:51:17.602Z,6.40
2023-04-03T14:53:46.783Z,6.30
2023-04-03T14:56:19.676Z,6.30
2023-04-03T14:58:50.366Z,6.30
2023-04-03T15:01:19.529Z,6.40
2023-04-03T15:03:48.995Z,6.30
2023-04-03T15:06:18.096Z,6.30
2023-04-03T15:08:48.231Z,6.20
2023-04-03T15:11:17.421Z,6.10
2023-04-03T15:13:45.714Z,6.00
2023-04-03T15:16:19.213Z,6.00
2023-04-03T15:18:51.018Z,6.00
2023-04-03T15:21:19.053Z,5.90
2023-04-03T15:23:47.101Z,5.90
2023-04-03T15:26:16.304Z,5.80
2023-04-03T15:28:46.708Z,5.70
2023-04-03T15:31:15.045Z,5.70
2023-04-03T15:33:43.817Z,5.60
2023-04-03T15:36:29.072Z,5.50
2023-04-03T15:39:01.208Z,5.40
2023-04-03T15:41:29.451Z,5.50
2023-04-03T15:43:57.484Z,5.40
2023-04-03T15:46:25.782Z,5.40
2023-04-03T15:48:54.197Z,5.40
2023-04-03T15:51:23.737Z,5.30
2023-04-03T15:53:51.753Z,5.20
2023-04-03T15:56:19.819Z,5.30
2023-04-03T15:58:47.822Z,5.40
2023-04-03T16:01:16.013Z,5.40
2023-04-03T16:03:47.226Z,5.40
2023-04-03T16:06:16.531Z,5.30
2023-04-03T16:08:46.774Z,5.30
2023-04-03T16:11:15.037Z,5.40
2023-04-03T16:13:43.516Z,5.30
2023-04-03T16:16:12.399Z,5.20
2023-04-03T16:18:40.626Z,5.10
2023-04-03T16:21:10.461Z,5.00
2023-04-03T16:23:38.675Z,5.00
2023-04-03T16:26:08.173Z,5.00
2023-04-03T16:28:36.278Z,5.00
2023-04-03T16:31:05.429Z,5.00
2023-04-03T16:33:33.793Z,5.00
2023-04-03T16:36:01.914Z,5.00
2023-04-03T16:38:30.048Z,5.00
2023-04-03T16:41:00.343Z,5.00
2023-04-03T16:43:29.837Z,5.00
2023-04-03T16:45:58.081Z,4.90
2023-04-03T16:48:26.445Z,4.80
2023-04-03T16:50:54.762Z,4.80
2023-04-03T16:53:23.306Z,4.70
2023-04-03T16:55:51.900Z,4.70
2023-04-03T16:58:21.758Z,4.80
2023-04-03T17:00:52.551Z,4.70
2023-04-03T17:03:20.678Z,4.60
2023-04-03T17:05:49.657Z,4.60
2023-04-03T17:08:19.629Z,4.60
2023-04-03T17:10:50.147Z,4.50
2023-04-03T17:13:18.458Z,4.50
2023-04-03T17:15:46.635Z,4.40
2023-04-03T17:18:16.693Z,4.40
2023-04-03T17:20:44.850Z,4.40
2023-04-03T17:23:12.995Z,4.50
2023-04-03T17:25:41.287Z,4.50
2023-04-03T17:28:09.429Z,4.40
2023-04-03T17:30:37.540Z,4.30
2023-04-03T17:33:05.782Z,4.40
2023-04-03T17:35:35.453Z,4.30
2023-04-03T17:38:04.602Z,4.30
2023-04-03T17:40:32.803Z,4.30
2023-04-03T17:43:00.921Z,4.30
2023-04-03T17:45:29.064Z,4.30
2023-04-03T17:47:57.413Z,4.20
2023-04-03T17:50:25.602Z,4.30
2023-04-03T17:52:55.146Z,4.30
2023-04-03T17:55:23.481Z,4.20
2023-04-03T17:57:51.592Z,4.20
2023-04-03T18:00:20.649Z,4.30
2023-04-03T18:02:48.811Z,4.20
2023-04-03T18:05:16.989Z,4.30
2023-04-03T18:07:45.185Z,4.30
2023-04-03T18:10:14.985Z,4.30
2023-04-03T18:12:43.221Z,4.30
2023-04-03T18:15:12.997Z,4.30
2023-04-03T18:17:41.282Z,4.40
2023-04-03T18:20:11.546Z,4.30
2023-04-03T18:22:39.648Z,4.30
2023-04-03T18:25:10.746Z,4.20
2023-04-03T18:27:41.487Z,4.20
2023-04-03T18:30:16.060Z,4.10
2023-04-03T18:32:44.283Z,4.10
2023-04-03T18:35:12.834Z,4.10
2023-04-03T18:37:40.907Z,4.10
2023-04-03T18:40:10.938Z,4.10
2023-04-03T18:42:42.733Z,4.10
2023-04-03T18:45:14.493Z,4.10
2023-04-03T18:47:43.728Z,4.10
2023-04-03T18:50:13.388Z,4.00
2023-04-03T18:52:41.545Z,4.20
2023-04-03T18:55:13.768Z,4.30
2023-04-03T18:57:43.235Z,4.20
2023-04-03T19:00:12.535Z,4.10
2023-04-03T19:02:41.352Z,4.10
2023-04-03T19:05:13.548Z,4.20
2023-04-03T19:07:44.646Z,4.20
2023-04-03T19:10:17.309Z,4.30
2023-04-03T19:12:48.988Z,4.20
2023-04-03T19:15:19.496Z,4.30
2023-04-03T19:17:47.878Z,4.20
2023-04-03T19:20:17.058Z,4.10
2023-04-03T19:22:46.318Z,4.10
2023-04-03T19:25:14.843Z,4.10
2023-04-03T19:27:42.983Z,4.00
2023-04-03T19:30:14.972Z,4.00
2023-04-03T19:32:43.198Z,4.00
2023-04-03T19:35:12.028Z,4.00
2023-04-03T19:37:40.679Z,4.00
2023-04-03T19:40:11.468Z,4.00
2023-04-03T19:42:42.897Z,3.90
2023-04-03T19:45:14.890Z,3.80
2023-04-03T19:47:43.271Z,3.90
2023-04-03T19:50:12.339Z,4.00
2023-04-03T19:52:40.475Z,3.90
2023-04-03T19:55:10.019Z,3.90
2023-04-03T19:57:38.247Z,3.90
2023-04-03T20:00:08.254Z,4.00
2023-04-03T20:02:37.701Z,3.90
2023-04-03T20:05:06.936Z,4.00
2023-04-03T20:07:35.063Z,4.00
2023-04-03T20:10:03.204Z,3.90
2023-04-03T20:12:31.318Z,3.90
2023-04-03T20:14:59.869Z,4.00
2023-04-03T20:17:28.219Z,3.90
2023-04-03T20:20:01.286Z,4.00
2023-04-03T20:22:29.644Z,3.90
2023-04-03T20:25:05.240Z,3.80
2023-04-03T20:27:35.386Z,3.70
2023-04-03T20:30:04.261Z,3.80
2023-04-03T20:32:33.603Z,3.70
2023-04-03T20:35:04.637Z,3.70
2023-04-03T20:37:33.778Z,3.70
2023-04-03T20:40:01.947Z,3.70
2023-04-03T20:42:30.135Z,3.70
2023-04-03T20:44:58.322Z,3.80
2023-04-03T20:47:26.545Z,3.80
2023-04-03T20:49:55.685Z,3.80
2023-04-03T20:52:25.151Z,3.80
2023-04-03T20:54:53.542Z,3.80
2023-04-03T20:57:21.778Z,3.80
2023-04-03T20:59:52.936Z,3.80
2023-04-03T21:02:21.629Z,3.70
2023-04-03T21:04:54.301Z,3.90
2023-04-03T21:08:18.516Z,3.80
2023-04-03T21:11:42.391Z,3.80
2023-04-03T21:15:06.576Z,3.90
2023-04-03T21:17:34.667Z,3.80
2023-04-03T21:20:04.198Z,3.90
2023-04-03T21:22:32.360Z,3.70
2023-04-03T21:25:00.488Z,3.70
2023-04-03T21:27:29.643Z,3.70
2023-04-03T21:29:58.411Z,3.80
2023-04-03T21:32:26.509Z,3.80
2023-04-03T21:34:54.659Z,3.70
2023-04-03T21:37:24.081Z,3.80
2023-04-03T21:39:52.267Z,3.60
2023-04-03T21:42:20.360Z,3.60
2023-04-03T21:44:49.130Z,3.60
2023-04-03T21:47:17.303Z,3.50
2023-04-03T21:49:45.521Z,3.50
2023-04-03T21:52:13.623Z,3.50
2023-04-03T21:54:43.182Z,3.70
2023-04-03T21:57:11.810Z,3.70
2023-04-03T21:59:40.017Z,3.80
2023-04-03T22:02:08.184Z,3.70
2023-04-03T22:04:36.349Z,3.60
2023-04-03T22:07:04.456Z,3.70
2023-04-03T22:09:32.548Z,3.60
2023-04-03T22:12:03.499Z,3.50
2023-04-03T22:14:31.665Z,3.60
2023-04-03T22:16:59.783Z,3.50
2023-04-03T22:19:27.883Z,3.50
2023-04-03T22:21:56.467Z,3.50
2023-04-03T22:24:24.609Z,3.40
2023-04-03T22:26:52.701Z,3.30
2023-04-03T22:29:22.166Z,3.40
2023-04-03T22:31:50.460Z,3.40
2023-04-03T22:34:19.010Z,3.30
2023-04-03T22:36:47.146Z,3.40
2023-04-03T22:39:16.347Z,3.40
2023-04-03T22:41:45.188Z,3.40
2023-04-03T22:44:13.732Z,3.40
2023-04-03T22:46:43.212Z,3.50
2023-04-03T22:49:11.999Z,3.50
2023-04-03T22:51:40.065Z,3.40
2023-04-03T22:54:08.387Z,3.40
2023-04-03T22:56:36.506Z,3.30
2023-04-03T22:59:04.925Z,3.30
2023-04-03T23:01:33.241Z,3.30
2023-04-03T23:04:02.881Z,3.30
2023-04-03T23:06:31.153Z,3.40
2023-04-03T23:08:59.257Z,3.30
2023-04-03T23:11:27.532Z,3.20
2023-04-03T23:13:55.655Z,3.20
2023-04-03T23:16:23.924Z,3.20
2023-04-03T23:18:52.171Z,3.10
2023-04-03T23:21:21.901Z,3.10
2023-04-03T23:23:50.012Z,3.20
2023-04-03T23:26:18.076Z,3.20
2023-04-03T23:28:46.232Z,3.30
2023-04-03T23:31:14.345Z,3.30
2023-04-03T23:33:43.973Z,3.10
2023-04-03T23:36:15.801Z,3.10
2023-04-03T23:38:45.316Z,3.00
2023-04-03T23:41:13.960Z,3.10
2023-04-03T23:43:42.438Z,3.10
2023-04-03T23:46:10.882Z,3.10
2023-04-03T23:48:39.021Z,3.00
2023-04-03T23:51:07.292Z,3.00
2023-04-03T23:53:35.449Z,3.00
2023-04-03T23:56:09.629Z,3.10
2023-04-03T23:58:38.037Z,3.00
